Latest Coastal Weather Observations for Bunbury

IDW60701

Issued at 6:03 pm WST Saturday 27 August 2016 (issued every 10 minutes, with the page automatically refreshed every 10 minutes)

About coastal observations | Map of coastal stations | Coastal observations for WA | Marine services | Other Formats
Station Details ID: 009965 Name: BUNBURY Lat: -33.36 Lon: 115.64 Height: 5.2 m
Data from the previous 72 hours. | See also: Recent months at Bunbury
Date/Time
WST
Temp
°C
Wind Pressure Rain since
9am
mm
Weather Cloud Vis
km
Sea
Height
m
Swell
Dir  Spd
kts
Gust
kts
hPa Trend Height
m
Period
s
Dir
27/06:00pm 13.1 SW 15 22 1002.0 - 1.2 - - - - - - -
27/05:30pm 13.2 SW 13 21 1001.5 - 1.2 - - - - - - -
27/05:00pm 12.6 SW 16 24 1001.0 - 1.2 - - - - - - -
27/04:30pm 13.7 SW 16 23 1000.4 - 0.6 - - - - - - -
27/04:14pm 14.8 WSW 15 26 999.9 - 0.6 - - - - - - -
27/04:00pm 15.0 WSW 14 24 999.8 - 0.6 - - - - - - -
27/03:30pm 14.1 WSW 13 24 999.5 - 0.6 - - - - - - -
27/03:00pm 14.4 W 15 27 999.4 - 0.4 - - - - - - -
27/02:39pm 15.0 W 15 25 999.2 - 0.4 - - - - - - -
27/02:30pm 14.5 W 15 24 999.4 - 0.4 - - - - - - -
27/02:00pm 13.1 WSW 16 28 999.5 - 0.4 - - - - - - -
27/01:30pm 13.7 W 16 26 999.5 - 0.0 - - - - - - -
27/01:01pm 14.6 W 15 25 999.9 - 0.0 - - - - - - -
27/01:00pm 14.7 W 15 23 999.9 - 0.0 - - - - - - -
27/12:39pm 13.9 W 15 25 1000.1 - 0.0 - - - - - - -
27/12:30pm 13.1 W 13 22 1000.2 - 0.0 - - - - - - -
27/12:00pm 14.1 W 14 24 1000.6 - 0.0 - - - - - - -
27/11:30am 13.9 WSW 14 21 1000.5 - 0.0 - - - - - - -
27/11:09am 13.7 W 17 30 1000.6 - 0.0 - - - - - - -
27/11:00am 14.5 WSW 16 24 1000.5 - 0.0 - - - - - - -
27/10:30am 14.4 WSW 12 21 1000.4 - 0.0 - - - - - - -
27/10:00am 14.1 WSW 10 17 1000.3 - 0.0 - - - - - - -
27/09:30am 13.5 WSW 10 19 1000.3 - 0.0 - - - - - - -
27/09:00am 13.6 WSW 11 20 1000.2 - 20.4 Recent precip. - - - - - -
27/08:30am 13.7 WNW 10 16 1000.1 - 20.4 - - - - - - -
27/08:00am 13.7 WNW 11 17 1000.3 - 20.2 - - - - - - -
27/07:30am 13.3 WNW 9 19 1000.0 - 20.2 - - - - - - -
27/07:00am 12.6 WNW 14 27 1000.2 - 20.2 - - - - - - -
27/06:30am 14.1 WNW 12 18 999.9 - 20.0 - - - - - - -
27/06:00am 14.1 WNW 12 20 1000.0 - 20.0 - - - - - - -
27/05:30am 14.2 WNW 10 21 1000.2 - 20.0 - - - - - - -
27/05:00am 13.9 WNW 13 20 1000.7 - 20.0 - - - - - - -
27/04:30am 13.8 W 9 14 1000.4 - 20.0 - - - - - - -
27/04:00am 13.5 W 9 14 1000.6 - 20.0 - - - - - - -
27/03:30am 12.7 WNW 7 12 1000.8 - 20.0 - - - - - - -
27/03:00am 12.5 NW 9 13 1000.7 - 19.2 Recent precip. - - - - - -
27/02:30am 12.4 NW 7 11 1000.7 - 19.2 - - - - - - -
27/02:00am 12.1 NW 12 19 1001.3 - 18.8 - - - - - - -
27/01:30am 12.5 WNW 12 21 1002.3 - 17.0 - - - - - - -
27/01:00am 13.0 NW 11 16 1002.0 - 15.4 - - - - - - -
27/12:30am 13.2 NW 12 19 1002.7 - 14.4 - - - - - - -
27/12:00am 13.2 WNW 9 13 1002.6 - 13.6 Rain - - - - - -
 
Date/Time
WST
Temp
°C
Wind Pressure Rain since
9am
mm
Weather Cloud Vis
km
Sea
Height
m
Swell
Dir  Spd
kts
Gust
kts
hPa Trend Height
m
Period
s
Dir
26/11:30pm 13.0 W 10 17 1003.7 - 12.8 - - - - - - -
26/11:00pm 12.5 W 11 17 1003.9 - 10.8 - - - - - - -
26/10:30pm 13.5 W 6 10 1002.6 - 10.4 - - - - - - -
26/10:25pm 13.4 W 8 13 1002.9 - 10.2 - - - - - - -
26/10:00pm 14.0 WNW 12 17 1004.9 - 9.4 - - - - - - -
26/09:30pm 13.7 WNW 12 18 1004.0 - 8.8 - - - - - - -
26/09:00pm 13.9 NW 6 9 1004.7 - 6.4 Rain - - - - - -
26/08:30pm 13.7 W 5 9 1003.9 - 5.2 - - - - - - -
26/08:00pm 14.1 W 8 11 1005.2 - 3.6 - - - - - - -
26/07:30pm 13.8 SW 8 13 1004.5 - 1.8 - - - - - - -
26/07:00pm 14.4 WSW 5 8 1004.3 - 1.4 - - - - - - -
26/06:30pm 14.4 W 6 11 1004.5 - 1.0 - - - - - - -
26/06:15pm 15.3 NNW 17 28 1004.2 - 0.0 - - - - - - -
26/06:13pm 15.8 N 17 28 1004.1 - 0.0 - - - - - - -
26/06:05pm 16.4 N 15 26 1003.4 - 0.0 - - - - - - -
26/06:00pm 16.5 N 15 23 1003.4 - 0.0 - - - - - - -
26/05:30pm 16.7 N 14 21 1003.9 - 0.0 - - - - - - -
26/05:00pm 17.1 N 15 23 1004.1 - 0.0 - - - - - - -
26/04:30pm 17.3 N 15 21 1004.6 - 0.0 - - - - - - -
26/04:00pm 17.3 N 15 24 1005.1 - 0.0 - - - - - - -
26/03:30pm 16.9 N 15 23 1005.3 - 0.0 - - - - - - -
26/03:00pm 17.1 N 15 23 1005.7 - 0.0 - - - - - - -
26/02:30pm 16.6 N 15 24 1006.2 - 0.0 - - - - - - -
26/02:00pm 16.9 N 15 20 1006.5 - 0.0 - - - - - - -
26/01:30pm 18.1 N 14 21 1007.0 - 0.0 - - - - - - -
26/01:00pm 18.6 N 11 17 1007.7 - 0.0 - - - - - - -
26/12:30pm 18.6 N 12 18 1008.1 - 0.0 - - - - - - -
26/12:00pm 18.6 N 11 16 1008.6 - 0.0 - - - - - - -
26/11:30am 16.9 N 9 13 1009.6 - 0.0 - - - - - - -
26/11:00am 17.2 N 11 18 1010.2 - 0.0 - - - - - - -
26/10:30am 17.0 N 14 19 1010.1 - 0.0 - - - - - - -
26/10:00am 15.7 NNE 10 15 1010.7 - 0.0 - - - - - - -
26/09:30am 15.4 N 11 17 1011.3 - 0.0 - - - - - - -
26/09:00am 15.6 N 11 16 1011.7 - 0.0 - - - - - - -
26/08:30am 16.1 N 10 14 1012.2 - 0.0 - - - - - - -
26/08:00am 15.3 N 5 9 1012.2 - 0.0 - - - - - - -
26/07:30am 14.5 NNE 5 8 1011.8 - 0.0 - - - - - - -
26/07:00am 14.0 N 5 10 1011.9 - 0.0 - - - - - - -
26/06:30am 14.4 N 6 10 1012.1 - 0.0 - - - - - - -
26/06:00am 14.9 NNE 7 10 1012.0 - 0.0 - - - - - - -
26/05:30am 14.4 NNE 6 9 1011.9 - 0.0 - - - - - - -
26/05:00am 13.4 NE 5 9 1012.1 - 0.0 - - - - - - -
26/04:30am 13.7 NNE 5 7 1012.5 - 0.0 - - - - - - -
26/04:00am 13.7 NNE 5 7 1012.7 - 0.0 - - - - - - -
26/03:30am 13.8 NE 5 8 1013.0 - 0.0 - - - - - - -
26/03:00am 13.4 NE 5 8 1013.6 - 0.0 - - - - - - -
26/02:30am 13.2 NE 4 7 1014.3 - 0.0 - - - - - - -
26/02:00am 13.9 NE 7 11 1014.5 - 0.0 - - - - - - -
26/01:30am 13.3 NE 5 8 1015.1 - 0.0 - - - - - - -
26/01:00am 13.0 NE 6 9 1015.6 - 0.0 - - - - - - -
26/12:30am 12.4 ENE 5 7 1016.1 - 0.0 - - - - - - -
26/12:00am 12.0 ENE 5 7 1016.7 - 0.0 - - - - - - -
 
Date/Time
WST
Temp
°C
Wind Pressure Rain since
9am
mm
Weather Cloud Vis
km
Sea
Height
m
Swell
Dir  Spd
kts
Gust
kts
hPa Trend Height
m
Period
s
Dir
25/11:30pm 11.5 ENE 5 9 1017.0 - 0.0 - - - - - - -
25/11:00pm 10.7 ENE 4 6 1017.5 - 0.0 - - - - - - -
25/10:30pm 10.4 ENE 2 3 1018.5 - 0.0 - - - - - - -
25/10:00pm 11.1 ENE 3 5 1019.1 - 0.0 - - - - - - -
25/09:30pm 11.5 ENE 4 6 1019.3 - 0.0 - - - - - - -
25/09:00pm 11.7 ENE 4 5 1019.6 - 0.0 - - - - - - -
25/08:30pm 11.9 ENE 5 7 1019.7 - 0.0 - - - - - - -
25/08:00pm 11.8 E 6 9 1019.4 - 0.0 - - - - - - -
25/07:30pm 12.0 ENE 5 6 1019.7 - 0.0 - - - - - - -
25/07:00pm 12.6 ENE 5 7 1019.4 - 0.0 - - - - - - -
25/06:30pm 13.6 ENE 6 9 1019.4 - 0.0 - - - - - - -
25/06:00pm 14.4 ENE 5 7 1019.1 - 0.0 - - - - - - -
25/05:30pm 15.9 ENE 6 9 1019.0 - 0.0 - - - - - - -
25/05:00pm 16.9 NNE 6 8 1019.2 - 0.0 - - - - - - -
25/04:30pm 17.3 NE 7 9 1019.1 - 0.0 - - - - - - -
25/04:00pm 17.6 NE 6 9 1019.5 - 0.0 - - - - - - -
25/03:30pm 17.7 NNE 6 11 1019.6 - 0.0 - - - - - - -
25/03:00pm 17.5 NE 6 11 1019.8 - 0.0 - - - - - - -
25/02:30pm 17.6 ENE 6 11 1020.3 - 0.0 - - - - - - -
25/02:00pm 17.9 NE 5 9 1020.7 - 0.0 - - - - - - -
25/01:30pm 17.5 ENE 7 11 1021.3 - 0.0 - - - - - - -
25/01:00pm 17.2 ENE 7 10 1021.8 - 0.0 - - - - - - -
25/12:30pm 16.9 ENE 7 11 1022.5 - 0.0 - - - - - - -
25/12:00pm 16.1 NE 8 13 1023.2 - 0.0 - - - - - - -
25/11:30am 15.7 NE 9 12 1024.0 - 0.0 - - - - - - -
25/11:00am 14.9 ENE 9 13 1024.5 - 0.0 - - - - - - -
25/10:30am 14.1 ENE 9 14 1025.0 - 0.0 - - - - - - -
25/10:00am 13.3 NE 10 14 1025.2 - 0.0 - - - - - - -
25/09:30am 12.6 NE 9 16 1025.4 - 0.0 - - - - - - -
25/09:00am 12.1 ENE 7 14 1025.4 - 0.0 - - - - - - -
25/08:30am 11.2 ENE 6 9 1025.4 - 0.0 - - - - - - -
25/08:00am 9.7 E 7 9 1025.4 - 0.0 - - - - - - -
25/07:30am 8.6 E 7 11 1025.4 - 0.0 - - - - - - -
25/07:00am 7.8 E 6 10 1025.2 - 0.0 - - - - - - -
25/06:30am 7.7 ENE 7 10 1025.0 - 0.0 - - - - - - -
25/06:00am 7.8 ENE 7 11 1024.9 - 0.0 - - - - - - -
25/05:30am 7.4 E 6 10 1024.8 - 0.0 - - - - - - -
25/05:00am 7.7 E 7 9 1024.8 - 0.0 - - - - - - -
25/04:30am 7.8 ENE 7 9 1024.5 - 0.0 - - - - - - -
25/04:00am 7.3 ENE 7 10 1024.5 - 0.0 - - - - - - -
25/03:30am 5.6 E 4 5 1024.8 - 0.0 - - - - - - -
25/03:00am 5.7 ENE 4 5 1024.9 - 0.0 - - - - - - -
25/02:30am 4.5 E 3 5 1025.0 - 0.0 - - - - - - -
25/02:00am 4.2 ESE 2 3 1025.3 - 0.0 - - - - - - -
25/01:30am 4.2 ENE 2 2 1025.4 - 0.0 - - - - - - -
25/01:00am 4.9 E 2 3 1025.6 - 0.0 - - - - - - -
25/12:30am 4.6 E 2 3 1025.7 - 0.0 - - - - - - -
25/12:00am 5.1 E 2 2 1026.1 - 0.0 - - - - - - -
 
Date/Time
WST
Temp
°C
Wind Pressure Rain since
9am
mm
Weather Cloud Vis
km
Sea
Height
m
Swell
Dir  Spd
kts
Gust
kts
hPa Trend Height
m
Period
s
Dir
24/11:30pm 4.8 E 2 3 1026.2 - 0.0 - - - - - - -
24/11:00pm 5.7 E 2 3 1026.3 - 0.0 - - - - - - -
24/10:30pm 6.3 ESE 3 3 1026.2 - 0.0 - - - - - - -
24/10:00pm 6.8 ESE 3 4 1026.3 - 0.0 - - - - - - -
24/09:30pm 7.7 ESE 3 4 1026.4 - 0.0 - - - - - - -
24/09:00pm 7.9 ESE 3 3 1026.3 - 0.0 - - - - - - -
24/08:30pm 9.1 ESE 3 4 1026.2 - 0.0 - - - - - - -
24/08:00pm 9.3 E 3 4 1026.2 - 0.0 - - - - - - -
24/07:30pm 10.6 E 3 4 1026.3 - 0.0 - - - - - - -
24/07:00pm 11.0 E 3 4 1026.2 - 0.0 - - - - - - -
24/06:30pm 11.6 ESE 3 4 1025.6 - 0.0 - - - - - - -

Other Formats:

Comma delimited format used in spreadsheet applications
http://www.bom.gov.au/fwo/IDW60701/IDW60701.94604.axf

JavaScript Object Notation format (JSON) in row-major order
http://www.bom.gov.au/fwo/IDW60701/IDW60701.94604.json